Time;durP1;ratioP1;P1;durP2;ratioP2;P2;SDS_P1;SDS_P2;PMS_P1;PMS_P2;Temp;Humidity;BMP_temperature;BMP_pressure;BME280_temperature;BME280_humidity;BME280_pressure;Samples;Min_cycle;Max_cycle;Signal;HPM_P1;HPM_P2
2022/05/04 00:00:45;;;;;;;20.95;10.35;;;7.80;80.00;;;;;;5017339;28;20033;-78
2022/05/04 00:03:11;;;;;;;18.67;10.95;;;7.80;80.00;;;;;;5021251;28;20103;-78
2022/05/04 00:05:37;;;;;;;19.13;9.60;;;7.80;80.10;;;;;;5017166;28;20021;-79
2022/05/04 00:08:03;;;;;;;18.60;10.43;;;7.80;80.10;;;;;;5017848;28;20056;-76
2022/05/04 00:10:30;;;;;;;19.65;10.43;;;7.70;80.10;;;;;;5016212;28;20037;-76
2022/05/04 00:12:57;;;;;;;16.25;10.27;;;7.70;80.20;;;;;;5014750;28;20466;-76
2022/05/04 00:15:23;;;;;;;19.52;9.95;;;7.70;80.30;;;;;;5014512;28;21491;-76
2022/05/04 00:17:49;;;;;;;19.70;10.93;;;7.70;80.30;;;;;;5019456;28;20528;-77
2022/05/04 00:20:14;;;;;;;22.23;10.20;;;7.70;80.40;;;;;;5012994;28;20602;-76
2022/05/04 00:22:40;;;;;;;16.88;9.65;;;7.60;80.60;;;;;;5017293;28;20044;-77
2022/05/04 00:25:06;;;;;;;20.95;10.23;;;7.60;80.70;;;;;;5019326;28;20136;-76
2022/05/04 00:27:33;;;;;;;18.02;9.63;;;7.60;80.60;;;;;;5014615;28;20366;-77
2022/05/04 00:29:58;;;;;;;19.05;10.82;;;7.60;80.70;;;;;;5016184;28;20033;-77
2022/05/04 00:32:24;;;;;;;19.35;11.13;;;7.50;80.60;;;;;;5024665;28;20350;-77
2022/05/04 00:34:49;;;;;;;20.10;11.00;;;7.50;80.60;;;;;;5027439;28;20034;-77
2022/05/04 00:37:15;;;;;;;19.02;10.40;;;7.50;80.80;;;;;;5035200;28;20041;-77
2022/05/04 00:39:41;;;;;;;17.92;10.55;;;7.40;80.70;;;;;;5034665;28;20037;-76
2022/05/04 00:42:13;;;;;;;15.88;10.00;;;7.40;80.90;;;;;;5028933;28;20775;-77
2022/05/04 00:44:39;;;;;;;21.55;10.68;;;7.40;81.10;;;;;;5015733;28;20033;-77
2022/05/04 00:47:06;;;;;;;16.50;11.10;;;7.30;81.20;;;;;;5017458;28;20456;-77
2022/05/04 00:49:31;;;;;;;17.95;10.80;;;7.30;81.20;;;;;;5023385;28;20120;-77
2022/05/04 00:51:58;;;;;;;17.50;9.68;;;7.30;81.30;;;;;;5016243;28;20037;-77
2022/05/04 00:54:24;;;;;;;16.67;10.50;;;7.30;81.30;;;;;;5012178;28;20035;-77
2022/05/04 00:56:51;;;;;;;17.40;10.30;;;7.30;81.30;;;;;;5016469;28;20473;-77
2022/05/04 00:59:16;;;;;;;19.48;11.60;;;7.20;81.00;;;;;;5017002;28;20131;-77
2022/05/04 01:01:42;;;;;;;19.83;10.25;;;7.20;81.10;;;;;;5014655;28;20491;-78
2022/05/04 01:04:08;;;;;;;19.23;9.68;;;7.20;81.00;;;;;;5014301;28;20040;-78
2022/05/04 01:06:34;;;;;;;18.75;10.48;;;7.10;80.80;;;;;;5016463;28;20037;-77
2022/05/04 01:09:00;;;;;;;21.60;11.00;;;7.10;80.90;;;;;;5015136;28;20210;-78
2022/05/04 01:11:26;;;;;;;17.05;10.70;;;7.10;80.90;;;;;;5016179;28;20133;-77
2022/05/04 01:14:03;;;;;;;17.40;10.18;;;7.10;81.00;;;;;;5011077;28;20497;-78
2022/05/04 01:16:30;;;;;;;16.85;10.32;;;7.10;81.10;;;;;;5015633;28;20032;-78
2022/05/04 01:18:56;;;;;;;21.65;10.93;;;7.10;81.20;;;;;;5015409;28;20472;-78
2022/05/04 01:21:22;;;;;;;19.13;10.90;;;7.00;81.20;;;;;;5012438;28;20033;-77
2022/05/04 01:23:48;;;;;;;18.40;10.27;;;7.00;81.20;;;;;;5016848;28;20469;-77
2022/05/04 01:26:17;;;;;;;16.42;10.23;;;7.00;81.40;;;;;;5021693;28;20029;-78
2022/05/04 01:28:44;;;;;;;18.95;10.27;;;7.00;81.40;;;;;;5019383;28;20061;-77
2022/05/04 01:31:09;;;;;;;18.13;10.73;;;7.00;81.20;;;;;;5014582;28;20152;-78
2022/05/04 01:33:35;;;;;;;20.13;11.00;;;7.00;81.20;;;;;;5016080;28;20037;-78
2022/05/04 01:36:01;;;;;;;19.50;11.15;;;6.90;81.00;;;;;;5019991;28;20618;-77
2022/05/04 01:38:27;;;;;;;17.17;10.63;;;6.90;81.00;;;;;;5018731;28;20044;-77
2022/05/04 01:40:53;;;;;;;16.88;10.77;;;6.90;80.90;;;;;;5013317;28;20461;-76
2022/05/04 01:43:18;;;;;;;18.60;10.55;;;6.80;81.00;;;;;;5013613;28;20088;-77
2022/05/04 01:45:44;;;;;;;16.25;10.23;;;6.80;81.20;;;;;;5011889;28;20029;-78
2022/05/04 01:48:10;;;;;;;14.57;10.05;;;6.80;80.90;;;;;;5012000;28;20030;-78
2022/05/04 01:50:36;;;;;;;16.55;10.65;;;6.80;80.50;;;;;;5007022;28;20030;-77
2022/05/04 01:53:02;;;;;;;16.90;10.95;;;6.70;80.40;;;;;;5013495;28;20495;-77
2022/05/04 01:55:28;;;;;;;19.85;12.90;;;6.60;80.60;;;;;;5014100;28;20122;-77
2022/05/04 01:57:54;;;;;;;23.92;12.65;;;6.60;80.80;;;;;;5014522;28;20030;-77
2022/05/04 02:00:20;;;;;;;17.50;12.57;;;6.60;81.00;;;;;;5015208;28;20491;-77
2022/05/04 02:02:45;;;;;;;18.83;13.30;;;6.60;81.00;;;;;;5014956;28;20081;-78
2022/05/04 02:05:12;;;;;;;21.88;12.68;;;6.60;80.70;;;;;;5016927;28;20110;-77
2022/05/04 02:07:38;;;;;;;21.27;12.95;;;6.60;80.50;;;;;;5014189;28;20025;-77
2022/05/04 02:10:05;;;;;;;18.02;12.18;;;6.50;80.60;;;;;;5019815;28;20778;-78
2022/05/04 02:12:34;;;;;;;20.90;11.30;;;6.50;80.70;;;;;;5013134;28;20473;-78
2022/05/04 02:15:00;;;;;;;16.77;11.05;;;6.40;80.90;;;;;;5014936;28;21126;-78
2022/05/04 02:17:25;;;;;;;18.98;11.43;;;6.40;81.10;;;;;;5015138;28;20066;-78
2022/05/04 02:19:51;;;;;;;18.27;11.00;;;6.40;81.30;;;;;;5013166;28;20045;-78
2022/05/04 02:22:18;;;;;;;21.08;11.82;;;6.30;81.50;;;;;;5018527;28;20048;-77
2022/05/04 02:24:43;;;;;;;18.75;11.32;;;6.30;81.50;;;;;;5014618;28;20032;-77
2022/05/04 02:27:09;;;;;;;20.00;12.15;;;6.30;81.70;;;;;;5015734;28;20026;-77
2022/05/04 02:29:35;;;;;;;20.30;12.40;;;6.30;81.80;;;;;;5013038;28;20461;-78
2022/05/04 02:32:00;;;;;;;20.27;11.98;;;6.20;81.70;;;;;;5014080;28;20045;-77
2022/05/04 02:34:26;;;;;;;19.15;11.45;;;6.20;81.80;;;;;;5023124;28;20087;-78
2022/05/04 02:39:36;;;;;;;21.15;12.02;;;6.30;81.80;;;;;;5015535;28;20321;-77
2022/05/04 02:42:02;;;;;;;23.17;13.43;;;6.30;81.70;;;;;;5013655;28;20555;-76
2022/05/04 02:44:28;;;;;;;18.15;11.40;;;6.20;81.40;;;;;;5015436;28;20080;-77
2022/05/04 02:46:54;;;;;;;19.88;11.90;;;6.30;81.70;;;;;;5018335;28;20120;-76
2022/05/04 02:49:20;;;;;;;22.92;12.68;;;6.30;81.80;;;;;;5013822;28;20029;-77
2022/05/04 02:51:45;;;;;;;19.13;11.60;;;6.40;81.90;;;;;;5034230;28;20040;-77
2022/05/04 02:54:11;;;;;;;19.55;11.02;;;6.50;81.80;;;;;;5039555;28;20102;-77
2022/05/04 02:56:37;;;;;;;22.88;11.73;;;6.50;81.60;;;;;;5042499;28;20101;-76
2022/05/04 02:59:03;;;;;;;20.85;13.30;;;6.60;81.60;;;;;;5039802;28;20044;-77
2022/05/04 03:04:13;;;;;;;22.90;13.13;;;6.60;81.70;;;;;;5013217;28;20194;-77
2022/05/04 03:06:40;;;;;;;18.95;12.00;;;6.60;82.00;;;;;;5019789;28;20511;-76
2022/05/04 03:09:06;;;;;;;17.50;11.05;;;6.60;81.90;;;;;;5017839;28;20037;-76
2022/05/04 03:14:20;;;;;;;18.20;11.73;;;6.70;81.70;;;;;;5011501;28;20478;-77
2022/05/04 03:16:47;;;;;;;18.67;12.23;;;6.70;81.50;;;;;;5010854;28;20083;-77
2022/05/04 03:19:13;;;;;;;21.38;12.32;;;6.60;81.50;;;;;;5011112;28;20473;-77
2022/05/04 03:21:39;;;;;;;20.15;13.43;;;6.60;81.60;;;;;;5014479;28;20044;-77
2022/05/04 03:24:05;;;;;;;16.75;11.70;;;6.50;81.80;;;;;;5013211;28;20045;-76
2022/05/04 03:26:31;;;;;;;20.85;12.93;;;6.50;81.90;;;;;;5017863;28;20033;-77
2022/05/04 03:28:57;;;;;;;19.95;13.38;;;6.40;81.90;;;;;;5016947;28;20037;-77
2022/05/04 03:31:23;;;;;;;21.20;13.15;;;6.40;82.00;;;;;;5014749;28;20108;-76
2022/05/04 03:33:48;;;;;;;19.95;11.55;;;6.40;82.10;;;;;;5016710;28;20034;-77
2022/05/04 03:36:14;;;;;;;18.88;11.77;;;6.30;82.10;;;;;;5015962;28;20614;-76
2022/05/04 03:38:40;;;;;;;17.15;10.98;;;6.30;82.20;;;;;;5012639;28;20033;-77
2022/05/04 03:41:05;;;;;;;19.17;12.32;;;6.20;82.30;;;;;;5013983;28;20124;-77
2022/05/04 03:43:31;;;;;;;17.60;11.38;;;6.20;82.30;;;;;;5021037;28;20045;-77
2022/05/04 03:46:12;;;;;;;21.95;12.57;;;6.20;82.20;;;;;;5020649;28;20402;-77
2022/05/04 03:48:38;;;;;;;25.48;14.68;;;6.20;82.20;;;;;;5009848;28;20571;-77
2022/05/04 03:51:04;;;;;;;24.92;14.25;;;6.10;82.10;;;;;;5019427;28;20041;-77
2022/05/04 03:53:30;;;;;;;23.77;13.70;;;6.10;82.40;;;;;;5020366;28;20152;-78
2022/05/04 03:55:56;;;;;;;20.60;13.60;;;6.10;82.60;;;;;;5018193;28;20029;-78
2022/05/04 03:58:22;;;;;;;23.10;14.25;;;6.00;82.60;;;;;;5017343;28;20069;-78
2022/05/04 04:00:47;;;;;;;24.33;14.38;;;6.00;82.70;;;;;;5022967;28;20369;-78
2022/05/04 04:03:13;;;;;;;22.77;13.75;;;6.00;82.80;;;;;;5016803;28;20049;-78
2022/05/04 04:05:39;;;;;;;24.45;14.35;;;6.00;82.90;;;;;;5018837;28;20068;-78
2022/05/04 04:08:04;;;;;;;21.42;13.32;;;6.00;82.70;;;;;;5019192;28;20037;-77
2022/05/04 04:10:30;;;;;;;22.95;13.93;;;5.90;82.60;;;;;;5027508;28;20036;-77
2022/05/04 04:12:56;;;;;;;26.38;13.93;;;5.90;82.70;;;;;;5016200;28;20033;-77
2022/05/04 04:15:22;;;;;;;29.35;14.50;;;5.90;82.80;;;;;;5017516;28;20053;-77
2022/05/04 04:17:47;;;;;;;24.73;13.98;;;5.90;82.90;;;;;;5016370;28;20107;-77
2022/05/04 04:22:58;;;;;;;22.83;12.88;;;5.90;83.00;;;;;;5017747;28;20511;-77
2022/05/04 04:25:23;;;;;;;24.02;12.82;;;5.90;82.90;;;;;;5010416;28;20049;-77
2022/05/04 04:27:49;;;;;;;21.95;14.23;;;5.90;82.60;;;;;;5010615;28;20038;-77
2022/05/04 04:30:14;;;;;;;23.27;14.45;;;5.90;82.30;;;;;;5018418;28;20898;-76
2022/05/04 04:32:40;;;;;;;23.17;14.27;;;5.90;82.40;;;;;;5014159;28;20052;-77
2022/05/04 04:35:06;;;;;;;24.42;14.90;;;5.80;82.40;;;;;;5010868;28;20045;-77
2022/05/04 04:37:32;;;;;;;30.20;15.27;;;5.70;83.00;;;;;;5014739;28;20032;-76
2022/05/04 04:39:58;;;;;;;25.17;15.60;;;5.70;83.20;;;;;;5022086;28;20037;-76
2022/05/04 04:42:23;;;;;;;22.98;14.43;;;5.70;83.40;;;;;;5013820;28;20124;-76
2022/05/04 04:44:49;;;;;;;24.58;14.73;;;5.80;83.40;;;;;;5012691;28;20280;-77
2022/05/04 04:47:15;;;;;;;21.67;13.30;;;5.90;82.90;;;;;;5025420;28;20209;-77
2022/05/04 04:49:40;;;;;;;22.77;14.57;;;5.90;82.90;;;;;;5018651;28;20037;-76
2022/05/04 04:52:06;;;;;;;23.63;14.48;;;6.00;82.80;;;;;;5017134;28;20037;-78
2022/05/04 04:54:32;;;;;;;22.45;14.82;;;6.10;82.70;;;;;;5010108;28;20389;-79
2022/05/04 04:56:58;;;;;;;21.33;12.88;;;6.10;82.70;;;;;;5017412;28;20037;-78
2022/05/04 04:59:23;;;;;;;21.25;13.30;;;6.20;82.80;;;;;;5011778;28;20121;-76
2022/05/04 05:01:49;;;;;;;22.80;14.55;;;6.30;82.80;;;;;;5012983;28;20545;-76
2022/05/04 05:04:14;;;;;;;23.45;14.75;;;6.40;82.90;;;;;;5005169;28;20449;-77
2022/05/04 05:06:40;;;;;;;23.42;15.90;;;6.40;82.80;;;;;;5011750;28;20484;-76
2022/05/04 05:09:06;;;;;;;20.77;13.98;;;6.50;82.90;;;;;;5021818;28;20052;-77
2022/05/04 05:11:31;;;;;;;19.02;13.57;;;6.60;82.60;;;;;;5007068;28;20524;-76
2022/05/04 05:16:41;;;;;;;23.23;15.93;;;6.90;81.80;;;;;;5017676;28;20031;-77
2022/05/04 05:19:07;;;;;;;22.15;14.27;;;6.90;81.70;;;;;;5013161;28;20029;-77
2022/05/04 05:21:33;;;;;;;22.63;13.45;;;7.10;81.70;;;;;;5021518;28;20034;-76
2022/05/04 05:23:59;;;;;;;22.45;14.90;;;7.20;81.50;;;;;;5015044;28;20140;-79
2022/05/04 05:26:24;;;;;;;26.38;14.60;;;7.30;81.30;;;;;;5010511;28;20496;-79
2022/05/04 05:28:50;;;;;;;21.08;14.30;;;7.40;80.90;;;;;;5010769;28;20041;-78
2022/05/04 05:31:15;;;;;;;30.55;15.43;;;7.50;80.60;;;;;;5012013;28;20110;-77
2022/05/04 05:33:41;;;;;;;24.40;16.10;;;7.60;80.40;;;;;;5016033;28;20385;-78
2022/05/04 05:36:07;;;;;;;22.67;15.20;;;7.70;80.60;;;;;;5016503;28;20124;-78
2022/05/04 05:38:33;;;;;;;23.02;14.50;;;7.80;80.60;;;;;;5021768;28;20049;-78
2022/05/04 05:40:59;;;;;;;28.23;15.20;;;7.80;80.50;;;;;;5013988;28;20504;-79
2022/05/04 05:43:25;;;;;;;24.13;14.52;;;7.80;80.90;;;;;;5017227;28;20041;-77
2022/05/04 05:45:51;;;;;;;25.90;16.98;;;7.80;81.20;;;;;;5012757;28;20099;-79
2022/05/04 05:48:19;;;;;;;26.05;15.32;;;7.80;81.40;;;;;;5014068;28;20090;-77
2022/05/04 05:50:44;;;;;;;26.02;15.80;;;7.80;81.50;;;;;;5005351;28;20495;-78
2022/05/04 05:53:10;;;;;;;27.73;16.00;;;7.90;81.80;;;;;;5006370;28;20505;-76
2022/05/04 05:55:36;;;;;;;27.58;16.58;;;8.00;82.10;;;;;;5007792;28;20019;-77
2022/05/04 05:58:01;;;;;;;26.17;16.08;;;8.10;81.50;;;;;;5006118;28;20692;-77
2022/05/04 06:00:27;;;;;;;25.40;15.70;;;8.20;81.20;;;;;;5005728;28;20138;-77
2022/05/04 06:02:53;;;;;;;24.15;16.38;;;8.30;80.90;;;;;;5015064;28;20538;-77
2022/05/04 06:05:18;;;;;;;24.23;16.00;;;8.30;81.20;;;;;;5015544;28;20170;-76
2022/05/04 06:07:44;;;;;;;28.42;15.93;;;8.50;81.30;;;;;;5019063;28;20034;-77
2022/05/04 06:10:10;;;;;;;25.35;16.17;;;8.70;81.30;;;;;;5013680;28;20041;-76
2022/05/04 06:12:38;;;;;;;26.80;15.23;;;8.80;80.70;;;;;;5016080;28;20991;-76
2022/05/04 06:15:04;;;;;;;25.50;15.55;;;8.90;80.20;;;;;;5012860;28;20387;-74
2022/05/04 06:17:30;;;;;;;27.20;16.95;;;8.90;80.30;;;;;;5013965;28;20029;-77
2022/05/04 06:19:56;;;;;;;25.98;16.50;;;9.10;80.30;;;;;;5011354;28;20033;-77
2022/05/04 06:22:21;;;;;;;29.30;17.15;;;9.20;79.70;;;;;;5014859;28;20166;-77
2022/05/04 06:24:47;;;;;;;23.92;14.85;;;9.30;79.60;;;;;;5016496;28;20029;-76
2022/05/04 06:27:13;;;;;;;21.42;15.73;;;9.50;79.90;;;;;;5017318;28;20349;-76
2022/05/04 06:35:07;;;;;;;26.27;15.20;;;9.90;79.00;;;;;;5006265;28;20040;-76
2022/05/04 06:37:33;;;;;;;26.75;16.35;;;10.10;78.40;;;;;;5015690;28;20029;-76
2022/05/04 06:39:58;;;;;;;25.63;15.70;;;10.20;77.30;;;;;;5010890;28;20037;-79
2022/05/04 06:42:24;;;;;;;25.52;16.27;;;10.40;77.30;;;;;;5020605;28;20384;-73
2022/05/04 06:44:50;;;;;;;24.73;16.30;;;10.70;77.10;;;;;;5015784;28;20035;-73
2022/05/04 06:47:15;;;;;;;30.42;16.55;;;10.90;75.70;;;;;;5017644;28;20038;-74
2022/05/04 06:49:43;;;;;;;29.05;15.73;;;11.00;74.80;;;;;;5019842;28;20037;-74
2022/05/04 06:52:09;;;;;;;32.85;16.83;;;11.10;75.20;;;;;;5014936;28;20491;-75
2022/05/04 06:54:35;;;;;;;25.65;16.40;;;11.30;75.20;;;;;;5020963;28;20030;-74
2022/05/04 06:57:00;;;;;;;27.25;17.25;;;11.40;74.20;;;;;;5014313;28;20033;-74
2022/05/04 06:59:27;;;;;;;28.42;17.45;;;11.50;73.80;;;;;;5018909;28;20366;-75
2022/05/04 07:01:53;;;;;;;35.40;18.58;;;11.80;74.10;;;;;;5014950;28;20124;-75
2022/05/04 07:04:18;;;;;;;33.05;18.27;;;12.00;73.40;;;;;;5013281;28;20041;-77
2022/05/04 07:06:44;;;;;;;32.20;19.08;;;12.30;71.80;;;;;;5012929;28;20029;-76
2022/05/04 07:09:10;;;;;;;29.48;19.17;;;12.60;70.40;;;;;;5008130;28;20465;-74
2022/05/04 07:11:36;;;;;;;33.30;18.27;;;12.60;71.30;;;;;;5004864;28;20473;-74
2022/05/04 07:14:01;;;;;;;30.95;19.55;;;12.80;70.00;;;;;;5020042;28;20240;-74
2022/05/04 07:16:27;;;;;;;29.13;19.00;;;13.00;70.00;;;;;;5006670;28;20042;-76
2022/05/04 07:18:53;;;;;;;31.58;21.10;;;13.00;69.00;;;;;;5007459;28;20034;-75
2022/05/04 07:21:18;;;;;;;33.55;21.05;;;13.20;68.80;;;;;;5005202;28;20031;-75
2022/05/04 07:23:44;;;;;;;36.55;21.38;;;13.20;68.40;;;;;;5005366;28;20038;-76
2022/05/04 07:26:09;;;;;;;32.65;21.17;;;13.20;68.00;;;;;;5012282;28;20104;-75
2022/05/04 07:28:35;;;;;;;29.65;20.98;;;13.30;68.40;;;;;;5002776;28;20589;-74
2022/05/04 07:31:01;;;;;;;36.03;23.48;;;13.50;68.70;;;;;;5001836;28;20512;-76
2022/05/04 07:33:26;;;;;;;44.25;26.48;;;13.60;67.60;;;;;;5013750;28;20805;-75
2022/05/04 07:35:52;;;;;;;33.50;21.60;;;13.60;67.10;;;;;;5005339;28;20060;-75
2022/05/04 07:38:18;;;;;;;39.30;22.83;;;13.10;66.80;;;;;;4993629;28;20043;-77
2022/05/04 07:43:28;;;;;;;35.00;22.52;;;13.40;67.40;;;;;;5010932;28;20075;-76
2022/05/04 07:45:54;;;;;;;37.13;22.88;;;13.30;66.70;;;;;;5008020;28;20124;-76
2022/05/04 07:48:21;;;;;;;34.80;23.48;;;13.40;66.90;;;;;;5009926;28;20164;-77
2022/05/04 07:50:47;;;;;;;34.72;22.67;;;13.30;67.00;;;;;;5005313;28;20061;-74
2022/05/04 07:53:12;;;;;;;34.33;21.80;;;13.20;67.10;;;;;;4997568;28;20442;-75
2022/05/04 07:55:38;;;;;;;36.75;23.35;;;13.20;67.40;;;;;;5006827;28;20429;-77
2022/05/04 07:58:04;;;;;;;37.47;22.92;;;13.30;67.90;;;;;;5003621;28;20052;-77
2022/05/04 08:05:58;;;;;;;34.35;22.35;;;13.90;66.10;;;;;;5012085;28;20032;-77
2022/05/04 08:08:24;;;;;;;33.08;20.75;;;13.80;64.80;;;;;;5015126;28;20025;-78
2022/05/04 08:10:49;;;;;;;30.70;21.08;;;14.00;66.00;;;;;;5015269;28;20042;-76
2022/05/04 08:13:17;;;;;;;31.95;21.95;;;14.20;64.40;;;;;;5006123;28;20100;-73
2022/05/04 08:15:43;;;;;;;39.50;24.13;;;14.30;64.70;;;;;;5005692;28;20041;-77
2022/05/04 08:18:08;;;;;;;36.55;24.00;;;14.20;64.20;;;;;;5004928;28;20665;-74
2022/05/04 08:20:34;;;;;;;32.67;23.13;;;14.10;64.10;;;;;;5003250;28;20030;-76
2022/05/04 08:22:59;;;;;;;35.65;23.77;;;14.00;64.70;;;;;;5003747;28;20144;-77
2022/05/04 08:25:25;;;;;;;34.60;23.33;;;14.00;65.30;;;;;;5013550;28;20076;-76
2022/05/04 08:27:51;;;;;;;37.85;24.10;;;13.90;64.20;;;;;;5011500;28;20065;-79
2022/05/04 08:30:17;;;;;;;36.17;23.67;;;13.80;65.40;;;;;;5014055;28;20040;-78
2022/05/04 08:32:46;;;;;;;30.77;22.15;;;14.00;64.30;;;;;;5020938;28;20029;-76
2022/05/04 08:35:13;;;;;;;36.63;21.70;;;13.80;65.20;;;;;;5031019;28;20583;-77
2022/05/04 08:37:39;;;;;;;35.45;22.13;;;14.00;65.70;;;;;;5018594;28;20780;-75
2022/05/04 08:40:06;;;;;;;34.92;22.73;;;14.20;65.10;;;;;;5021135;28;20045;-77
2022/05/04 08:42:31;;;;;;;37.67;21.55;;;14.70;64.50;;;;;;5021394;28;20057;-75
2022/05/04 08:44:58;;;;;;;34.13;21.75;;;15.10;61.80;;;;;;5014532;28;20125;-77
2022/05/04 08:47:28;;;;;;;34.58;23.17;;;15.30;61.90;;;;;;5032920;28;20033;-77
2022/05/04 08:49:54;;;;;;;36.67;22.42;;;15.20;60.10;;;;;;5009859;28;20120;-77
2022/05/04 08:52:21;;;;;;;31.05;22.38;;;15.40;60.60;;;;;;5014261;28;20067;-78
2022/05/04 08:54:49;;;;;;;31.58;21.95;;;15.30;60.20;;;;;;4999961;28;21134;-78
2022/05/04 08:57:15;;;;;;;34.90;23.50;;;14.80;60.50;;;;;;5002867;28;20025;-75
2022/05/04 08:59:43;;;;;;;33.13;22.40;;;14.70;62.50;;;;;;5003457;28;20040;-79
2022/05/04 09:02:10;;;;;;;34.50;21.10;;;15.10;61.30;;;;;;5016857;28;20136;-79
2022/05/04 09:04:39;;;;;;;32.17;20.92;;;15.30;61.10;;;;;;5013127;28;20030;-77
2022/05/04 09:07:25;;;;;;;30.48;20.58;;;15.40;59.60;;;;;;5004112;28;20041;-77
2022/05/04 09:09:53;;;;;;;32.05;21.65;;;15.60;59.00;;;;;;5001579;28;20468;-78
2022/05/04 09:12:19;;;;;;;31.58;21.63;;;15.90;58.00;;;;;;5012483;28;20030;-78
2022/05/04 09:14:45;;;;;;;31.27;19.90;;;16.10;58.00;;;;;;5011190;28;20033;-80
2022/05/04 09:17:14;;;;;;;28.85;19.50;;;16.00;56.40;;;;;;5013002;28;20644;-77
2022/05/04 09:20:45;;;;;;;29.75;20.52;;;16.10;55.90;;;;;;5013090;28;20396;-75
2022/05/04 09:22:37;;;;;;;28.70;20.67;;;16.00;56.80;;;;;;5011205;28;20041;-78
2022/05/04 09:25:03;;;;;;;28.67;17.88;;;15.90;53.80;;;;;;5013847;28;20037;-80
2022/05/04 09:27:30;;;;;;;26.70;17.90;;;15.30;57.40;;;;;;5007629;28;20056;-77
2022/05/04 09:29:59;;;;;;;29.38;18.63;;;15.90;57.20;;;;;;5010808;28;20423;-77
2022/05/04 09:32:30;;;;;;;28.48;18.95;;;16.10;56.00;;;;;;5011882;28;20035;-77
2022/05/04 09:34:55;;;;;;;30.77;19.15;;;16.60;54.80;;;;;;5012042;28;20119;-80
2022/05/04 09:45:40;;;;;;;31.40;19.63;;;16.10;57.70;;;;;;5008697;28;20044;-77
2022/05/04 09:48:06;;;;;;;29.65;18.52;;;16.30;57.30;;;;;;5011372;28;20044;-77
2022/05/04 09:50:39;;;;;;;24.67;17.30;;;16.60;56.20;;;;;;5008345;28;20041;-79
2022/05/04 09:53:05;;;;;;;27.48;17.92;;;16.60;55.80;;;;;;5009102;28;20045;-75
2022/05/04 09:55:31;;;;;;;26.58;17.05;;;16.80;55.30;;;;;;5009961;28;20087;-79
2022/05/04 09:57:57;;;;;;;23.30;16.02;;;16.80;54.10;;;;;;5015815;28;20125;-79
2022/05/04 10:00:25;;;;;;;21.83;14.68;;;16.60;52.90;;;;;;5005344;28;20041;-78
2022/05/04 10:02:54;;;;;;;25.27;17.48;;;17.10;52.70;;;;;;5014848;28;20045;-77
2022/05/04 10:05:21;;;;;;;21.98;17.00;;;17.50;53.20;;;;;;5011709;28;20025;-77
2022/05/04 10:07:52;;;;;;;23.58;15.90;;;17.70;52.70;;;;;;5014228;28;21003;-75
2022/05/04 10:10:21;;;;;;;23.35;14.95;;;17.50;51.50;;;;;;5006162;28;20044;-75
2022/05/04 10:12:47;;;;;;;26.00;15.95;;;17.80;51.00;;;;;;5007809;28;20607;-78
2022/05/04 10:15:15;;;;;;;24.55;16.45;;;18.00;50.80;;;;;;5007845;28;20083;-76
2022/05/04 10:17:54;;;;;;;23.35;16.00;;;18.10;51.20;;;;;;5009526;28;20034;-74
2022/05/04 10:20:32;;;;;;;14.60;10.38;;;18.40;51.40;;;;;;5003255;28;20045;-77
2022/05/04 10:23:19;;;;;;;18.98;11.88;;;18.30;47.30;;;;;;5014516;28;20045;-79
2022/05/04 10:25:48;;;;;;;22.77;15.82;;;18.10;49.10;;;;;;5008380;28;20057;-76
2022/05/04 10:28:15;;;;;;;22.90;15.48;;;17.90;49.60;;;;;;5007859;28;20034;-78
2022/05/04 10:30:56;;;;;;;21.15;15.15;;;17.30;50.10;;;;;;5005225;28;20650;-80
2022/05/04 10:33:35;;;;;;;20.52;13.88;;;17.40;51.40;;;;;;5009004;28;20045;-75
2022/05/04 10:36:14;;;;;;;18.88;13.80;;;18.10;50.90;;;;;;5011109;28;20045;-74
2022/05/04 10:38:43;;;;;;;22.02;14.07;;;18.60;48.60;;;;;;5001306;28;20064;-76
2022/05/04 10:41:09;;;;;;;22.65;15.32;;;18.50;50.00;;;;;;5007286;28;20827;-76
2022/05/04 10:43:36;;;;;;;24.92;14.13;;;18.60;49.60;;;;;;5003466;28;20041;-75
2022/05/04 10:46:16;;;;;;;22.83;14.63;;;18.70;49.20;;;;;;5003649;28;20326;-75
2022/05/04 10:48:43;;;;;;;20.67;13.90;;;18.30;49.30;;;;;;5005542;28;20030;-75
2022/05/04 10:51:11;;;;;;;20.83;13.82;;;18.50;50.10;;;;;;5001946;28;20033;-76
2022/05/04 10:53:38;;;;;;;22.15;13.88;;;18.40;49.10;;;;;;5010969;28;20549;-75
2022/05/04 10:56:09;;;;;;;23.08;14.63;;;18.20;49.90;;;;;;5014884;28;20101;-76
2022/05/04 10:58:53;;;;;;;19.27;12.40;;;18.60;48.50;;;;;;5007066;28;20026;-76
2022/05/04 11:01:36;;;;;;;22.15;14.02;;;19.00;48.80;;;;;;5002028;28;20171;-77
2022/05/04 11:04:11;;;;;;;21.55;13.82;;;19.10;47.80;;;;;;4999125;28;20052;-76
2022/05/04 11:06:53;;;;;;;18.67;13.38;;;19.30;48.00;;;;;;4998913;28;20049;-80
2022/05/04 11:09:21;;;;;;;21.17;12.70;;;19.20;47.30;;;;;;4995725;28;20049;-74
2022/05/04 11:11:49;;;;;;;19.77;12.93;;;19.40;48.30;;;;;;4992726;28;20441;-75
2022/05/04 11:14:18;;;;;;;18.73;12.88;;;19.60;47.60;;;;;;4997606;28;20124;-77
2022/05/04 11:16:45;;;;;;;18.65;12.57;;;20.00;47.40;;;;;;5002649;28;20065;-80
2022/05/04 11:19:14;;;;;;;18.15;13.45;;;20.10;46.50;;;;;;4995345;28;20165;-78
2022/05/04 11:21:40;;;;;;;19.15;11.90;;;20.10;46.40;;;;;;5001103;28;20045;-78
2022/05/04 11:24:08;;;;;;;21.00;13.45;;;20.30;46.20;;;;;;4998728;28;20045;-77
2022/05/04 11:26:51;;;;;;;19.38;13.15;;;20.60;44.60;;;;;;4994066;28;20087;-79
2022/05/04 11:29:27;;;;;;;15.43;9.35;;;20.60;46.10;;;;;;5000908;28;20045;-74
2022/05/04 11:31:56;;;;;;;17.52;11.25;;;20.40;44.80;;;;;;5003521;28;20037;-78
2022/05/04 11:34:36;;;;;;;19.60;12.20;;;19.80;45.80;;;;;;5000872;28;20108;-75
2022/05/04 11:37:03;;;;;;;18.50;13.38;;;19.80;47.50;;;;;;5008191;28;20049;-75
2022/05/04 11:39:29;;;;;;;18.50;13.20;;;19.60;47.50;;;;;;5006257;28;20117;-76
2022/05/04 11:41:59;;;;;;;22.33;14.75;;;19.80;48.00;;;;;;5002361;28;20493;-79
2022/05/04 11:44:27;;;;;;;19.17;11.73;;;20.10;47.80;;;;;;5010813;28;20041;-75
2022/05/04 11:46:58;;;;;;;17.88;11.15;;;20.20;47.30;;;;;;5004730;28;20034;-79
2022/05/04 11:49:26;;;;;;;13.85;9.48;;;20.30;47.10;;;;;;5000199;28;20516;-75
2022/05/04 11:51:53;;;;;;;15.38;8.65;;;20.10;45.50;;;;;;5003885;28;20156;-78
2022/05/04 11:54:19;;;;;;;20.05;12.02;;;20.10;46.80;;;;;;5001704;28;20500;-75
2022/05/04 11:56:45;;;;;;;16.52;11.00;;;19.60;48.30;;;;;;5002118;28;20037;-75
2022/05/04 11:59:11;;;;;;;16.10;10.32;;;19.60;48.20;;;;;;4997956;28;20037;-78
2022/05/04 12:01:38;;;;;;;16.02;9.98;;;19.50;46.90;;;;;;5001046;28;20045;-76
2022/05/04 12:04:05;;;;;;;16.00;11.18;;;19.30;47.30;;;;;;5009441;28;20424;-73
2022/05/04 12:06:31;;;;;;;15.55;10.18;;;19.20;47.50;;;;;;5007052;28;20295;-78
2022/05/04 12:08:59;;;;;;;18.73;12.57;;;19.20;47.80;;;;;;5012677;28;20034;-77
2022/05/04 12:11:25;;;;;;;14.63;11.32;;;18.90;48.60;;;;;;5004983;28;20041;-76
2022/05/04 12:13:52;;;;;;;18.63;12.25;;;19.10;48.20;;;;;;5009405;28;20256;-77
2022/05/04 12:16:19;;;;;;;17.70;12.85;;;19.00;49.80;;;;;;5022843;28;20595;-79
2022/05/04 12:18:47;;;;;;;18.50;12.07;;;18.70;50.10;;;;;;5013107;28;20095;-77
2022/05/04 12:21:19;;;;;;;17.75;11.98;;;18.80;49.30;;;;;;5005104;28;20025;-76
2022/05/04 12:23:47;;;;;;;15.65;11.45;;;18.60;49.60;;;;;;5011553;28;20235;-76
2022/05/04 12:26:15;;;;;;;15.65;11.63;;;18.50;49.80;;;;;;5010442;28;20033;-76
2022/05/04 12:28:43;;;;;;;15.80;11.05;;;18.40;50.30;;;;;;5013315;28;20049;-77
2022/05/04 12:33:57;;;;;;;18.02;12.25;;;18.60;49.80;;;;;;5010003;28;20048;-78
2022/05/04 12:36:23;;;;;;;22.08;13.85;;;18.40;50.90;;;;;;5013471;28;20033;-77
2022/05/04 12:38:51;;;;;;;17.63;13.18;;;18.30;50.70;;;;;;5012532;28;20025;-81
2022/05/04 12:41:26;;;;;;;18.15;13.43;;;18.40;50.90;;;;;;5013546;28;20018;-75
2022/05/04 12:43:51;;;;;;;17.27;13.80;;;18.20;51.70;;;;;;5010117;28;20045;-76
2022/05/04 12:46:19;;;;;;;17.83;12.55;;;18.30;51.50;;;;;;5012110;28;20118;-75
2022/05/04 12:48:47;;;;;;;18.85;13.93;;;18.50;50.70;;;;;;5012677;28;20164;-79
2022/05/04 12:51:16;;;;;;;19.55;13.27;;;18.30;51.30;;;;;;5009559;28;20496;-77
2022/05/04 12:53:44;;;;;;;16.02;12.68;;;18.40;51.40;;;;;;5011170;28;20037;-75
2022/05/04 12:59:01;;;;;;;17.88;12.68;;;18.50;51.20;;;;;;5008308;28;20040;-74
2022/05/04 13:01:28;;;;;;;19.27;13.13;;;18.30;50.70;;;;;;5005494;28;20049;-78
2022/05/04 13:03:54;;;;;;;20.85;13.73;;;18.20;50.60;;;;;;5002942;28;20136;-76
2022/05/04 13:06:21;;;;;;;18.30;13.38;;;18.00;52.10;;;;;;5008103;28;20060;-72
2022/05/04 13:08:48;;;;;;;19.67;14.45;;;17.80;53.00;;;;;;5006954;28;20045;-74
2022/05/04 13:11:18;;;;;;;23.40;15.10;;;17.80;53.10;;;;;;5012940;28;20033;-75
2022/05/04 13:13:44;;;;;;;20.90;14.18;;;17.80;53.70;;;;;;5004295;28;20042;-75